sensor_id;sensor_type;location;lat;lon;timestamp;temperature;humidity
9776;DHT22;4927;52.472;13.108;2024-03-08T00:00:54;-1.10;99.90
9776;DHT22;4927;52.472;13.108;2024-03-08T00:01:56;-1.20;99.90
9776;DHT22;4927;52.472;13.108;2024-03-08T00:02:58;-1.20;99.90
9776;DHT22;4927;52.472;13.108;2024-03-08T00:04:00;-1.20;99.90
9776;DHT22;4927;52.472;13.108;2024-03-08T00:05:07;-1.30;99.90
9776;DHT22;4927;52.472;13.108;2024-03-08T00:06:10;-1.30;99.90
9776;DHT22;4927;52.472;13.108;2024-03-08T00:07:12;-1.30;99.90
9776;DHT22;4927;52.472;13.108;2024-03-08T00:08:14;-1.30;99.90
9776;DHT22;4927;52.472;13.108;2024-03-08T00:09:16;-1.30;99.90
9776;DHT22;4927;52.472;13.108;2024-03-08T00:10:18;-1.30;99.90
9776;DHT22;4927;52.472;13.108;2024-03-08T00:11:20;-0.60;99.90
9776;DHT22;4927;52.472;13.108;2024-03-08T00:12:23;-1.30;99.90
9776;DHT22;4927;52.472;13.108;2024-03-08T00:13:25;-1.40;99.90
9776;DHT22;4927;52.472;13.108;2024-03-08T00:14:27;-1.40;99.90
9776;DHT22;4927;52.472;13.108;2024-03-08T00:15:29;-1.40;99.90
9776;DHT22;4927;52.472;13.108;2024-03-08T00:16:33;-1.40;99.90
9776;DHT22;4927;52.472;13.108;2024-03-08T00:17:35;-1.40;99.90
9776;DHT22;4927;52.472;13.108;2024-03-08T00:18:37;-1.40;99.90
9776;DHT22;4927;52.472;13.108;2024-03-08T00:19:39;-1.40;99.90
9776;DHT22;4927;52.472;13.108;2024-03-08T00:20:42;-1.40;99.90
9776;DHT22;4927;52.472;13.108;2024-03-08T00:21:44;-1.50;99.90
9776;DHT22;4927;52.472;13.108;2024-03-08T00:22:46;-1.50;99.90
9776;DHT22;4927;52.472;13.108;2024-03-08T00:23:49;-1.50;99.90
9776;DHT22;4927;52.472;13.108;2024-03-08T00:24:51;-1.50;99.90
9776;DHT22;4927;52.472;13.108;2024-03-08T00:25:53;-1.50;99.90
9776;DHT22;4927;52.472;13.108;2024-03-08T00:26:56;-1.50;99.90
9776;DHT22;4927;52.472;13.108;2024-03-08T00:27:58;-1.50;99.90
9776;DHT22;4927;52.472;13.108;2024-03-08T00:29:01;-1.60;99.90
9776;DHT22;4927;52.472;13.108;2024-03-08T00:30:04;-1.60;99.90
9776;DHT22;4927;52.472;13.108;2024-03-08T00:31:07;-1.60;99.90
9776;DHT22;4927;52.472;13.108;2024-03-08T00:32:09;-1.60;99.90
9776;DHT22;4927;52.472;13.108;2024-03-08T00:33:11;-1.60;99.90
9776;DHT22;4927;52.472;13.108;2024-03-08T00:34:13;-1.60;99.90
9776;DHT22;4927;52.472;13.108;2024-03-08T00:35:15;-1.60;99.90
9776;DHT22;4927;52.472;13.108;2024-03-08T00:36:17;-1.60;99.90
9776;DHT22;4927;52.472;13.108;2024-03-08T00:37:20;-1.60;99.90
9776;DHT22;4927;52.472;13.108;2024-03-08T00:38:22;-1.60;99.90
9776;DHT22;4927;52.472;13.108;2024-03-08T00:39:24;-1.70;99.90
9776;DHT22;4927;52.472;13.108;2024-03-08T00:40:26;-1.60;99.90
9776;DHT22;4927;52.472;13.108;2024-03-08T00:41:28;-1.70;99.90
9776;DHT22;4927;52.472;13.108;2024-03-08T00:42:30;-1.70;99.90
9776;DHT22;4927;52.472;13.108;2024-03-08T00:43:32;-1.70;99.90
9776;DHT22;4927;52.472;13.108;2024-03-08T00:44:34;-1.70;99.90
9776;DHT22;4927;52.472;13.108;2024-03-08T00:45:36;-1.70;99.90
9776;DHT22;4927;52.472;13.108;2024-03-08T00:46:38;-1.70;99.90
9776;DHT22;4927;52.472;13.108;2024-03-08T00:47:40;-1.70;99.90
9776;DHT22;4927;52.472;13.108;2024-03-08T00:48:42;-1.70;99.90
9776;DHT22;4927;52.472;13.108;2024-03-08T00:49:44;-1.70;99.90
9776;DHT22;4927;52.472;13.108;2024-03-08T00:50:46;-1.70;99.90
9776;DHT22;4927;52.472;13.108;2024-03-08T00:51:48;-1.70;99.90
9776;DHT22;4927;52.472;13.108;2024-03-08T00:52:50;-1.70;99.90
9776;DHT22;4927;52.472;13.108;2024-03-08T00:53:52;-1.70;99.90
9776;DHT22;4927;52.472;13.108;2024-03-08T00:54:54;-1.70;99.90
9776;DHT22;4927;52.472;13.108;2024-03-08T00:55:56;-1.70;99.90
9776;DHT22;4927;52.472;13.108;2024-03-08T00:56:59;-1.70;99.90
9776;DHT22;4927;52.472;13.108;2024-03-08T00:58:01;-1.70;99.90
9776;DHT22;4927;52.472;13.108;2024-03-08T00:59:04;-1.70;99.90
9776;DHT22;4927;52.472;13.108;2024-03-08T01:00:07;-1.70;99.90
9776;DHT22;4927;52.472;13.108;2024-03-08T01:01:10;-1.70;99.90
9776;DHT22;4927;52.472;13.108;2024-03-08T01:02:12;-1.70;99.90
9776;DHT22;4927;52.472;13.108;2024-03-08T01:03:14;-1.70;99.90
9776;DHT22;4927;52.472;13.108;2024-03-08T01:04:16;-1.70;99.90
9776;DHT22;4927;52.472;13.108;2024-03-08T01:05:18;-1.70;99.90
9776;DHT22;4927;52.472;13.108;2024-03-08T01:06:21;-1.70;99.90
9776;DHT22;4927;52.472;13.108;2024-03-08T01:07:23;-1.80;99.90
9776;DHT22;4927;52.472;13.108;2024-03-08T01:08:25;-1.80;99.90
9776;DHT22;4927;52.472;13.108;2024-03-08T01:09:28;-1.80;99.90
9776;DHT22;4927;52.472;13.108;2024-03-08T01:10:30;-1.80;99.90
9776;DHT22;4927;52.472;13.108;2024-03-08T01:11:32;-1.80;99.90
9776;DHT22;4927;52.472;13.108;2024-03-08T01:12:34;-1.80;99.90
9776;DHT22;4927;52.472;13.108;2024-03-08T01:13:36;-1.80;99.90
9776;DHT22;4927;52.472;13.108;2024-03-08T01:14:38;-1.80;99.90
9776;DHT22;4927;52.472;13.108;2024-03-08T01:15:40;-1.90;99.90
9776;DHT22;4927;52.472;13.108;2024-03-08T01:16:42;-1.90;99.90
9776;DHT22;4927;52.472;13.108;2024-03-08T01:17:44;-1.80;99.90
9776;DHT22;4927;52.472;13.108;2024-03-08T01:18:46;-1.80;99.90
9776;DHT22;4927;52.472;13.108;2024-03-08T01:19:48;-1.90;99.90
9776;DHT22;4927;52.472;13.108;2024-03-08T01:20:50;-1.90;99.90
9776;DHT22;4927;52.472;13.108;2024-03-08T01:21:52;-1.90;99.90
9776;DHT22;4927;52.472;13.108;2024-03-08T01:22:54;-1.90;99.90
9776;DHT22;4927;52.472;13.108;2024-03-08T01:23:56;-1.90;99.90
9776;DHT22;4927;52.472;13.108;2024-03-08T01:24:59;-1.90;99.90
9776;DHT22;4927;52.472;13.108;2024-03-08T01:26:01;-1.90;99.90
9776;DHT22;4927;52.472;13.108;2024-03-08T01:27:03;-1.90;99.90
9776;DHT22;4927;52.472;13.108;2024-03-08T01:28:06;-1.90;99.90
9776;DHT22;4927;52.472;13.108;2024-03-08T01:29:08;-1.90;99.90
9776;DHT22;4927;52.472;13.108;2024-03-08T01:30:10;-1.90;99.90
9776;DHT22;4927;52.472;13.108;2024-03-08T01:31:12;-1.90;99.90
9776;DHT22;4927;52.472;13.108;2024-03-08T01:32:14;-1.90;99.90
9776;DHT22;4927;52.472;13.108;2024-03-08T01:33:16;-2.00;99.90
9776;DHT22;4927;52.472;13.108;2024-03-08T01:34:18;-2.00;99.90
9776;DHT22;4927;52.472;13.108;2024-03-08T01:35:20;-2.00;99.90
9776;DHT22;4927;52.472;13.108;2024-03-08T01:36:22;-2.00;99.90
9776;DHT22;4927;52.472;13.108;2024-03-08T01:37:25;-2.00;99.90
9776;DHT22;4927;52.472;13.108;2024-03-08T01:38:27;-2.00;99.90
9776;DHT22;4927;52.472;13.108;2024-03-08T01:39:30;-2.00;99.90
9776;DHT22;4927;52.472;13.108;2024-03-08T01:40:32;-2.00;99.90
9776;DHT22;4927;52.472;13.108;2024-03-08T01:41:34;-2.00;99.90
9776;DHT22;4927;52.472;13.108;2024-03-08T01:42:36;-2.10;99.90
9776;DHT22;4927;52.472;13.108;2024-03-08T01:43:38;-2.10;99.90
9776;DHT22;4927;52.472;13.108;2024-03-08T01:44:40;-2.10;99.90
9776;DHT22;4927;52.472;13.108;2024-03-08T01:45:43;-2.10;99.90
9776;DHT22;4927;52.472;13.108;2024-03-08T01:46:45;-2.10;99.90
9776;DHT22;4927;52.472;13.108;2024-03-08T01:47:48;-2.10;99.90
9776;DHT22;4927;52.472;13.108;2024-03-08T01:48:50;-2.10;99.90
9776;DHT22;4927;52.472;13.108;2024-03-08T01:49:52;-2.10;99.90
9776;DHT22;4927;52.472;13.108;2024-03-08T01:50:55;-2.10;99.90
9776;DHT22;4927;52.472;13.108;2024-03-08T01:51:56;-2.20;99.90
9776;DHT22;4927;52.472;13.108;2024-03-08T01:52:58;-2.10;99.90
9776;DHT22;4927;52.472;13.108;2024-03-08T01:54:00;-2.10;99.90
9776;DHT22;4927;52.472;13.108;2024-03-08T01:55:02;-2.10;99.90
9776;DHT22;4927;52.472;13.108;2024-03-08T01:56:05;-2.10;99.90
9776;DHT22;4927;52.472;13.108;2024-03-08T01:57:08;-2.10;99.90
9776;DHT22;4927;52.472;13.108;2024-03-08T01:58:11;-2.10;99.90
9776;DHT22;4927;52.472;13.108;2024-03-08T01:59:14;-2.10;99.90
9776;DHT22;4927;52.472;13.108;2024-03-08T02:00:16;-2.10;99.90
9776;DHT22;4927;52.472;13.108;2024-03-08T02:01:19;-2.10;99.90
9776;DHT22;4927;52.472;13.108;2024-03-08T02:02:22;-2.10;99.90
9776;DHT22;4927;52.472;13.108;2024-03-08T02:03:24;-2.10;99.90
9776;DHT22;4927;52.472;13.108;2024-03-08T02:04:26;-2.10;99.90
9776;DHT22;4927;52.472;13.108;2024-03-08T02:05:28;-2.20;99.90
9776;DHT22;4927;52.472;13.108;2024-03-08T02:06:31;-2.10;99.90
9776;DHT22;4927;52.472;13.108;2024-03-08T02:07:34;-2.10;99.90
9776;DHT22;4927;52.472;13.108;2024-03-08T02:08:36;-2.10;99.90
9776;DHT22;4927;52.472;13.108;2024-03-08T02:09:38;-2.10;99.90
9776;DHT22;4927;52.472;13.108;2024-03-08T02:10:41;-2.10;99.90
9776;DHT22;4927;52.472;13.108;2024-03-08T02:11:45;-2.10;99.90
9776;DHT22;4927;52.472;13.108;2024-03-08T02:12:47;-2.10;99.90
9776;DHT22;4927;52.472;13.108;2024-03-08T02:13:49;-2.10;99.90
9776;DHT22;4927;52.472;13.108;2024-03-08T02:14:51;-2.20;99.90
9776;DHT22;4927;52.472;13.108;2024-03-08T02:15:56;-2.20;99.90
9776;DHT22;4927;52.472;13.108;2024-03-08T02:17:01;-2.20;99.90
9776;DHT22;4927;52.472;13.108;2024-03-08T02:18:03;-2.30;99.90
9776;DHT22;4927;52.472;13.108;2024-03-08T02:19:06;-2.30;99.90
9776;DHT22;4927;52.472;13.108;2024-03-08T02:20:09;-2.30;99.90
9776;DHT22;4927;52.472;13.108;2024-03-08T02:21:11;-2.30;99.90
9776;DHT22;4927;52.472;13.108;2024-03-08T02:22:14;-2.30;99.90
9776;DHT22;4927;52.472;13.108;2024-03-08T02:23:16;-2.30;99.90
9776;DHT22;4927;52.472;13.108;2024-03-08T02:24:18;-2.30;99.90
9776;DHT22;4927;52.472;13.108;2024-03-08T02:25:21;-2.30;99.90
9776;DHT22;4927;52.472;13.108;2024-03-08T02:26:23;-2.30;99.90
9776;DHT22;4927;52.472;13.108;2024-03-08T02:27:25;-2.30;99.90
9776;DHT22;4927;52.472;13.108;2024-03-08T02:28:27;-2.40;99.90
9776;DHT22;4927;52.472;13.108;2024-03-08T02:29:30;-2.40;99.90
9776;DHT22;4927;52.472;13.108;2024-03-08T02:30:32;-2.40;99.90
9776;DHT22;4927;52.472;13.108;2024-03-08T02:31:34;-2.50;99.90
9776;DHT22;4927;52.472;13.108;2024-03-08T02:32:36;-2.50;99.90
9776;DHT22;4927;52.472;13.108;2024-03-08T02:33:38;-2.50;99.90
9776;DHT22;4927;52.472;13.108;2024-03-08T02:34:40;-2.50;99.90
9776;DHT22;4927;52.472;13.108;2024-03-08T02:35:42;-2.50;99.90
9776;DHT22;4927;52.472;13.108;2024-03-08T02:36:44;-2.50;99.90
9776;DHT22;4927;52.472;13.108;2024-03-08T02:37:46;-2.50;99.90
9776;DHT22;4927;52.472;13.108;2024-03-08T02:38:50;-2.50;99.90
9776;DHT22;4927;52.472;13.108;2024-03-08T02:39:53;-2.50;99.90
9776;DHT22;4927;52.472;13.108;2024-03-08T02:40:55;-2.40;99.90
9776;DHT22;4927;52.472;13.108;2024-03-08T02:41:57;-2.50;99.90
9776;DHT22;4927;52.472;13.108;2024-03-08T02:42:59;-2.50;99.90
9776;DHT22;4927;52.472;13.108;2024-03-08T02:44:02;-2.50;99.90
9776;DHT22;4927;52.472;13.108;2024-03-08T02:45:05;-2.50;99.90
9776;DHT22;4927;52.472;13.108;2024-03-08T02:46:08;-2.50;99.90
9776;DHT22;4927;52.472;13.108;2024-03-08T02:47:10;-2.50;99.90
9776;DHT22;4927;52.472;13.108;2024-03-08T02:48:12;-2.50;99.90
9776;DHT22;4927;52.472;13.108;2024-03-08T02:49:14;-2.50;99.90
9776;DHT22;4927;52.472;13.108;2024-03-08T02:50:16;-2.60;99.90
9776;DHT22;4927;52.472;13.108;2024-03-08T02:51:19;-2.50;99.90
9776;DHT22;4927;52.472;13.108;2024-03-08T02:52:21;-2.60;99.90
9776;DHT22;4927;52.472;13.108;2024-03-08T02:53:23;-2.60;99.90
9776;DHT22;4927;52.472;13.108;2024-03-08T02:54:25;-2.60;99.90
9776;DHT22;4927;52.472;13.108;2024-03-08T02:55:27;-2.60;99.90
9776;DHT22;4927;52.472;13.108;2024-03-08T02:56:30;-2.60;99.90
9776;DHT22;4927;52.472;13.108;2024-03-08T02:57:32;-2.60;99.90
9776;DHT22;4927;52.472;13.108;2024-03-08T02:58:34;-2.60;99.90
9776;DHT22;4927;52.472;13.108;2024-03-08T02:59:36;-2.60;99.90
9776;DHT22;4927;52.472;13.108;2024-03-08T03:00:38;-2.60;99.90
9776;DHT22;4927;52.472;13.108;2024-03-08T03:01:40;-2.50;99.90
9776;DHT22;4927;52.472;13.108;2024-03-08T03:02:42;-2.60;99.90
9776;DHT22;4927;52.472;13.108;2024-03-08T03:03:44;-2.50;99.90
9776;DHT22;4927;52.472;13.108;2024-03-08T03:04:46;-2.60;99.90
9776;DHT22;4927;52.472;13.108;2024-03-08T03:05:48;-2.50;99.90
9776;DHT22;4927;52.472;13.108;2024-03-08T03:06:51;-2.50;99.90
9776;DHT22;4927;52.472;13.108;2024-03-08T03:07:53;-2.60;99.90
9776;DHT22;4927;52.472;13.108;2024-03-08T03:08:55;-2.50;99.90
9776;DHT22;4927;52.472;13.108;2024-03-08T03:09:57;-2.50;99.90
9776;DHT22;4927;52.472;13.108;2024-03-08T03:11:00;-2.50;99.90
9776;DHT22;4927;52.472;13.108;2024-03-08T03:12:02;-2.50;99.90
9776;DHT22;4927;52.472;13.108;2024-03-08T03:13:04;-2.60;99.90
9776;DHT22;4927;52.472;13.108;2024-03-08T03:14:07;-2.60;99.90
9776;DHT22;4927;52.472;13.108;2024-03-08T03:15:10;-2.60;99.90
9776;DHT22;4927;52.472;13.108;2024-03-08T03:16:16;-2.60;99.90
9776;DHT22;4927;52.472;13.108;2024-03-08T03:17:14;-2.70;99.90
9776;DHT22;4927;52.472;13.108;2024-03-08T03:18:16;-2.70;99.90
9776;DHT22;4927;52.472;13.108;2024-03-08T03:19:18;-2.70;99.90
9776;DHT22;4927;52.472;13.108;2024-03-08T03:20:21;-2.70;99.90
9776;DHT22;4927;52.472;13.108;2024-03-08T03:21:24;-2.70;99.90
9776;DHT22;4927;52.472;13.108;2024-03-08T03:22:26;-2.70;99.90
9776;DHT22;4927;52.472;13.108;2024-03-08T03:23:28;-2.80;99.90
9776;DHT22;4927;52.472;13.108;2024-03-08T03:24:30;-2.80;99.90
9776;DHT22;4927;52.472;13.108;2024-03-08T03:25:32;-2.80;99.90
9776;DHT22;4927;52.472;13.108;2024-03-08T03:26:34;-2.70;99.90
9776;DHT22;4927;52.472;13.108;2024-03-08T03:27:36;-2.70;99.90
9776;DHT22;4927;52.472;13.108;2024-03-08T03:28:39;-2.70;99.90
9776;DHT22;4927;52.472;13.108;2024-03-08T03:29:41;-2.70;99.90
9776;DHT22;4927;52.472;13.108;2024-03-08T03:30:45;-2.70;99.90
9776;DHT22;4927;52.472;13.108;2024-03-08T03:31:47;-2.70;99.90
9776;DHT22;4927;52.472;13.108;2024-03-08T03:32:50;-2.70;99.90
9776;DHT22;4927;52.472;13.108;2024-03-08T03:33:52;-2.70;99.90
9776;DHT22;4927;52.472;13.108;2024-03-08T03:34:54;-2.80;99.90
9776;DHT22;4927;52.472;13.108;2024-03-08T03:35:56;-2.80;99.90
9776;DHT22;4927;52.472;13.108;2024-03-08T03:36:59;-2.80;99.90
9776;DHT22;4927;52.472;13.108;2024-03-08T03:38:01;-2.80;99.90
9776;DHT22;4927;52.472;13.108;2024-03-08T03:39:03;-2.80;99.90
9776;DHT22;4927;52.472;13.108;2024-03-08T03:40:07;-2.80;99.90
9776;DHT22;4927;52.472;13.108;2024-03-08T03:41:09;-2.80;99.90
9776;DHT22;4927;52.472;13.108;2024-03-08T03:42:11;-2.80;99.90
9776;DHT22;4927;52.472;13.108;2024-03-08T03:43:14;-2.80;99.90
9776;DHT22;4927;52.472;13.108;2024-03-08T03:44:16;-2.80;99.90
9776;DHT22;4927;52.472;13.108;2024-03-08T03:45:18;-2.90;99.90
9776;DHT22;4927;52.472;13.108;2024-03-08T03:46:20;-2.80;99.90
9776;DHT22;4927;52.472;13.108;2024-03-08T03:47:22;-2.90;99.90
9776;DHT22;4927;52.472;13.108;2024-03-08T03:48:23;-2.90;99.90
9776;DHT22;4927;52.472;13.108;2024-03-08T03:49:26;-2.90;99.90
9776;DHT22;4927;52.472;13.108;2024-03-08T03:50:28;-2.90;99.90
9776;DHT22;4927;52.472;13.108;2024-03-08T03:51:31;-2.90;99.90
9776;DHT22;4927;52.472;13.108;2024-03-08T03:52:33;-3.00;99.90
9776;DHT22;4927;52.472;13.108;2024-03-08T03:53:36;-3.00;99.90
9776;DHT22;4927;52.472;13.108;2024-03-08T03:54:38;-3.00;99.90
9776;DHT22;4927;52.472;13.108;2024-03-08T03:55:40;-3.00;99.90
9776;DHT22;4927;52.472;13.108;2024-03-08T03:56:42;-3.00;99.90
9776;DHT22;4927;52.472;13.108;2024-03-08T03:57:44;-3.00;99.90
9776;DHT22;4927;52.472;13.108;2024-03-08T03:58:46;-3.10;99.90
9776;DHT22;4927;52.472;13.108;2024-03-08T03:59:49;-3.10;99.90
9776;DHT22;4927;52.472;13.108;2024-03-08T04:00:50;-3.10;99.90
9776;DHT22;4927;52.472;13.108;2024-03-08T04:01:53;-3.10;99.90
9776;DHT22;4927;52.472;13.108;2024-03-08T04:02:55;-3.10;99.90
9776;DHT22;4927;52.472;13.108;2024-03-08T04:03:58;-3.10;99.90
9776;DHT22;4927;52.472;13.108;2024-03-08T04:05:00;-3.10;99.90
9776;DHT22;4927;52.472;13.108;2024-03-08T04:06:03;-3.10;99.90
9776;DHT22;4927;52.472;13.108;2024-03-08T04:07:05;-3.10;99.90
9776;DHT22;4927;52.472;13.108;2024-03-08T04:08:07;-3.10;99.90
9776;DHT22;4927;52.472;13.108;2024-03-08T04:09:09;-3.20;99.90
9776;DHT22;4927;52.472;13.108;2024-03-08T04:10:12;-3.10;99.90
9776;DHT22;4927;52.472;13.108;2024-03-08T04:11:14;-3.20;99.90
9776;DHT22;4927;52.472;13.108;2024-03-08T04:12:16;-3.20;99.90
9776;DHT22;4927;52.472;13.108;2024-03-08T04:13:18;-3.10;99.90
9776;DHT22;4927;52.472;13.108;2024-03-08T04:14:20;-3.10;99.90
9776;DHT22;4927;52.472;13.108;2024-03-08T04:15:23;-3.10;99.90
9776;DHT22;4927;52.472;13.108;2024-03-08T04:16:25;-3.20;99.90
9776;DHT22;4927;52.472;13.108;2024-03-08T04:17:27;-3.10;99.90
9776;DHT22;4927;52.472;13.108;2024-03-08T04:18:29;-3.10;99.90
9776;DHT22;4927;52.472;13.108;2024-03-08T04:19:31;-3.10;99.90
9776;DHT22;4927;52.472;13.108;2024-03-08T04:20:33;-3.10;99.90
9776;DHT22;4927;52.472;13.108;2024-03-08T04:21:35;-3.20;99.90
9776;DHT22;4927;52.472;13.108;2024-03-08T04:22:38;-3.20;99.90
9776;DHT22;4927;52.472;13.108;2024-03-08T04:23:40;-3.20;99.90
9776;DHT22;4927;52.472;13.108;2024-03-08T04:24:44;-3.20;99.90
9776;DHT22;4927;52.472;13.108;2024-03-08T04:25:46;-3.20;99.90
9776;DHT22;4927;52.472;13.108;2024-03-08T04:26:48;-3.20;99.90
9776;DHT22;4927;52.472;13.108;2024-03-08T04:27:50;-3.20;99.90
9776;DHT22;4927;52.472;13.108;2024-03-08T04:28:52;-3.20;99.90
9776;DHT22;4927;52.472;13.108;2024-03-08T04:29:54;-3.20;99.90
9776;DHT22;4927;52.472;13.108;2024-03-08T04:30:57;-3.30;99.90
9776;DHT22;4927;52.472;13.108;2024-03-08T04:31:59;-3.30;99.90
9776;DHT22;4927;52.472;13.108;2024-03-08T04:33:01;-3.30;99.90
9776;DHT22;4927;52.472;13.108;2024-03-08T04:34:03;-3.30;99.90
9776;DHT22;4927;52.472;13.108;2024-03-08T04:35:05;-3.30;99.90
9776;DHT22;4927;52.472;13.108;2024-03-08T04:36:09;-3.30;99.90
9776;DHT22;4927;52.472;13.108;2024-03-08T04:37:11;-3.30;99.90
9776;DHT22;4927;52.472;13.108;2024-03-08T04:38:13;-3.30;99.90
9776;DHT22;4927;52.472;13.108;2024-03-08T04:39:15;-3.30;99.90
9776;DHT22;4927;52.472;13.108;2024-03-08T04:40:17;-3.30;99.90
9776;DHT22;4927;52.472;13.108;2024-03-08T04:41:19;-3.30;99.90
9776;DHT22;4927;52.472;13.108;2024-03-08T04:42:21;-3.30;99.90
9776;DHT22;4927;52.472;13.108;2024-03-08T04:43:24;-3.30;99.90
9776;DHT22;4927;52.472;13.108;2024-03-08T04:44:26;-3.30;99.90
9776;DHT22;4927;52.472;13.108;2024-03-08T04:45:28;-3.30;99.90
9776;DHT22;4927;52.472;13.108;2024-03-08T04:46:31;-3.30;99.90
9776;DHT22;4927;52.472;13.108;2024-03-08T04:47:33;-3.30;99.90
9776;DHT22;4927;52.472;13.108;2024-03-08T04:48:35;-3.30;99.90
9776;DHT22;4927;52.472;13.108;2024-03-08T04:49:38;-3.30;99.90
9776;DHT22;4927;52.472;13.108;2024-03-08T04:50:40;-3.30;99.90
9776;DHT22;4927;52.472;13.108;2024-03-08T04:51:43;-3.30;99.90
9776;DHT22;4927;52.472;13.108;2024-03-08T04:52:45;-3.30;99.90
9776;DHT22;4927;52.472;13.108;2024-03-08T04:53:48;-3.30;99.90
9776;DHT22;4927;52.472;13.108;2024-03-08T04:54:50;-3.30;99.90
9776;DHT22;4927;52.472;13.108;2024-03-08T04:55:52;-3.30;99.90
9776;DHT22;4927;52.472;13.108;2024-03-08T04:56:54;-3.30;99.90
9776;DHT22;4927;52.472;13.108;2024-03-08T04:57:57;-3.20;99.90
9776;DHT22;4927;52.472;13.108;2024-03-08T04:58:59;-3.30;99.90
9776;DHT22;4927;52.472;13.108;2024-03-08T05:00:02;-3.20;99.90
9776;DHT22;4927;52.472;13.108;2024-03-08T05:01:04;-3.30;99.90
9776;DHT22;4927;52.472;13.108;2024-03-08T05:02:06;-3.20;99.90
9776;DHT22;4927;52.472;13.108;2024-03-08T05:03:08;-3.20;99.90
9776;DHT22;4927;52.472;13.108;2024-03-08T05:04:10;-3.20;99.90
9776;DHT22;4927;52.472;13.108;2024-03-08T05:05:13;-3.20;99.90
9776;DHT22;4927;52.472;13.108;2024-03-08T05:06:15;-3.20;99.90
9776;DHT22;4927;52.472;13.108;2024-03-08T05:07:18;-3.20;99.90
9776;DHT22;4927;52.472;13.108;2024-03-08T05:08:20;-3.20;99.90
9776;DHT22;4927;52.472;13.108;2024-03-08T05:09:21;-3.20;99.90
9776;DHT22;4927;52.472;13.108;2024-03-08T05:10:23;-3.20;99.90
9776;DHT22;4927;52.472;13.108;2024-03-08T05:11:26;-3.20;99.90
9776;DHT22;4927;52.472;13.108;2024-03-08T05:12:28;-3.20;99.90
9776;DHT22;4927;52.472;13.108;2024-03-08T05:13:30;-3.20;99.90
9776;DHT22;4927;52.472;13.108;2024-03-08T05:14:32;-3.20;99.90
9776;DHT22;4927;52.472;13.108;2024-03-08T05:15:35;-3.20;99.90
9776;DHT22;4927;52.472;13.108;2024-03-08T05:16:37;-3.20;99.90
9776;DHT22;4927;52.472;13.108;2024-03-08T05:17:39;-3.30;99.90
9776;DHT22;4927;52.472;13.108;2024-03-08T05:18:42;-3.30;99.90
9776;DHT22;4927;52.472;13.108;2024-03-08T05:19:44;-3.30;99.90
9776;DHT22;4927;52.472;13.108;2024-03-08T05:20:46;-3.30;99.90
9776;DHT22;4927;52.472;13.108;2024-03-08T05:21:48;-3.30;99.90
9776;DHT22;4927;52.472;13.108;2024-03-08T05:22:50;-3.30;99.90
9776;DHT22;4927;52.472;13.108;2024-03-08T05:23:52;-3.40;99.90
9776;DHT22;4927;52.472;13.108;2024-03-08T05:24:54;-3.40;99.90
9776;DHT22;4927;52.472;13.108;2024-03-08T05:25:56;-3.40;99.90
9776;DHT22;4927;52.472;13.108;2024-03-08T05:26:58;-3.40;99.90
9776;DHT22;4927;52.472;13.108;2024-03-08T05:28:00;-3.50;99.90
9776;DHT22;4927;52.472;13.108;2024-03-08T05:29:02;-3.50;99.90
9776;DHT22;4927;52.472;13.108;2024-03-08T05:30:05;-3.50;99.90
9776;DHT22;4927;52.472;13.108;2024-03-08T05:31:07;-3.50;99.90
9776;DHT22;4927;52.472;13.108;2024-03-08T05:32:09;-3.50;99.90
9776;DHT22;4927;52.472;13.108;2024-03-08T05:33:11;-3.50;99.90
9776;DHT22;4927;52.472;13.108;2024-03-08T05:34:13;-3.50;99.90
9776;DHT22;4927;52.472;13.108;2024-03-08T05:35:16;-3.50;99.90
9776;DHT22;4927;52.472;13.108;2024-03-08T05:36:18;-3.50;99.90
9776;DHT22;4927;52.472;13.108;2024-03-08T05:37:20;-3.50;99.90
9776;DHT22;4927;52.472;13.108;2024-03-08T05:38:22;-3.50;99.90
9776;DHT22;4927;52.472;13.108;2024-03-08T05:39:24;-3.50;99.90
9776;DHT22;4927;52.472;13.108;2024-03-08T05:40:26;-3.50;99.90
9776;DHT22;4927;52.472;13.108;2024-03-08T05:41:28;-3.60;99.90
9776;DHT22;4927;52.472;13.108;2024-03-08T05:42:30;-3.60;99.90
9776;DHT22;4927;52.472;13.108;2024-03-08T05:43:32;-3.60;99.90
9776;DHT22;4927;52.472;13.108;2024-03-08T05:44:34;-3.60;99.90
9776;DHT22;4927;52.472;13.108;2024-03-08T05:45:36;-3.60;99.90
9776;DHT22;4927;52.472;13.108;2024-03-08T05:46:38;-3.60;99.90
9776;DHT22;4927;52.472;13.108;2024-03-08T05:47:40;-3.60;99.90
9776;DHT22;4927;52.472;13.108;2024-03-08T05:48:42;-3.60;99.90
9776;DHT22;4927;52.472;13.108;2024-03-08T05:49:44;-3.60;99.90
9776;DHT22;4927;52.472;13.108;2024-03-08T05:50:46;-3.60;99.90
9776;DHT22;4927;52.472;13.108;2024-03-08T05:51:48;-3.60;99.90
9776;DHT22;4927;52.472;13.108;2024-03-08T05:52:50;-3.60;99.90
9776;DHT22;4927;52.472;13.108;2024-03-08T05:53:52;-3.60;99.90
9776;DHT22;4927;52.472;13.108;2024-03-08T05:54:54;-3.60;99.90
9776;DHT22;4927;52.472;13.108;2024-03-08T05:55:55;-3.60;99.90
9776;DHT22;4927;52.472;13.108;2024-03-08T05:56:57;-3.60;99.90
9776;DHT22;4927;52.472;13.108;2024-03-08T05:58:00;-3.60;99.90
9776;DHT22;4927;52.472;13.108;2024-03-08T05:59:03;-3.60;99.90
9776;DHT22;4927;52.472;13.108;2024-03-08T06:00:06;-3.60;99.90
9776;DHT22;4927;52.472;13.108;2024-03-08T06:01:09;-3.50;99.90
9776;DHT22;4927;52.472;13.108;2024-03-08T06:02:11;-3.50;99.90
9776;DHT22;4927;52.472;13.108;2024-03-08T06:03:13;-3.50;99.90
9776;DHT22;4927;52.472;13.108;2024-03-08T06:04:15;-3.50;99.90
9776;DHT22;4927;52.472;13.108;2024-03-08T06:05:17;-3.50;99.90
9776;DHT22;4927;52.472;13.108;2024-03-08T06:06:19;-3.50;99.90
9776;DHT22;4927;52.472;13.108;2024-03-08T06:07:21;-3.50;99.90
9776;DHT22;4927;52.472;13.108;2024-03-08T06:08:24;-3.50;99.90
9776;DHT22;4927;52.472;13.108;2024-03-08T06:09:26;-3.50;99.90
9776;DHT22;4927;52.472;13.108;2024-03-08T06:10:28;-3.40;99.90
9776;DHT22;4927;52.472;13.108;2024-03-08T06:11:30;-3.40;99.90
9776;DHT22;4927;52.472;13.108;2024-03-08T06:12:32;-3.40;99.90
9776;DHT22;4927;52.472;13.108;2024-03-08T06:13:35;-3.30;99.90
9776;DHT22;4927;52.472;13.108;2024-03-08T06:14:37;-3.40;99.90
9776;DHT22;4927;52.472;13.108;2024-03-08T06:15:39;-3.30;99.90
9776;DHT22;4927;52.472;13.108;2024-03-08T06:16:41;-3.30;99.90
9776;DHT22;4927;52.472;13.108;2024-03-08T06:17:43;-3.30;99.90
9776;DHT22;4927;52.472;13.108;2024-03-08T06:18:45;-3.30;99.90
9776;DHT22;4927;52.472;13.108;2024-03-08T06:19:47;-3.30;99.90
9776;DHT22;4927;52.472;13.108;2024-03-08T06:20:49;-3.30;99.90
9776;DHT22;4927;52.472;13.108;2024-03-08T06:21:51;-3.20;99.90
9776;DHT22;4927;52.472;13.108;2024-03-08T06:22:53;-3.20;99.90
9776;DHT22;4927;52.472;13.108;2024-03-08T06:23:55;-3.20;99.90
9776;DHT22;4927;52.472;13.108;2024-03-08T06:24:57;-3.20;99.90
9776;DHT22;4927;52.472;13.108;2024-03-08T06:25:59;-3.20;99.90
9776;DHT22;4927;52.472;13.108;2024-03-08T06:27:01;-3.20;99.90
9776;DHT22;4927;52.472;13.108;2024-03-08T06:28:03;-3.20;99.90
9776;DHT22;4927;52.472;13.108;2024-03-08T06:29:07;-3.10;99.90
9776;DHT22;4927;52.472;13.108;2024-03-08T06:30:10;-3.10;99.90
9776;DHT22;4927;52.472;13.108;2024-03-08T06:31:13;-3.10;99.90
9776;DHT22;4927;52.472;13.108;2024-03-08T06:32:15;-3.00;99.90
9776;DHT22;4927;52.472;13.108;2024-03-08T06:33:18;-3.00;99.90
9776;DHT22;4927;52.472;13.108;2024-03-08T06:34:20;-2.90;99.90
9776;DHT22;4927;52.472;13.108;2024-03-08T06:35:22;-2.90;99.90
9776;DHT22;4927;52.472;13.108;2024-03-08T06:36:24;-2.80;99.90
9776;DHT22;4927;52.472;13.108;2024-03-08T06:37:26;-2.80;99.90
9776;DHT22;4927;52.472;13.108;2024-03-08T06:38:28;-2.80;99.90
9776;DHT22;4927;52.472;13.108;2024-03-08T06:39:31;-2.70;99.90